Time;durP1;ratioP1;P1;durP2;ratioP2;P2;SDS_P1;SDS_P2;PMS_P1;PMS_P2;Temp;Humidity;BMP_temperature;BMP_pressure;BME280_temperature;BME280_humidity;BME280_pressure;Samples;Min_cycle;Max_cycle;Signal;HPM_P1;HPM_P2
2022/04/12 00:00:45;;;;;;;5.10;0.95;;;;;;;14.36;34.20;101263.09;5056282;28;20024;-58
2022/04/12 00:03:12;;;;;;;5.60;1.38;;;;;;;14.48;34.36;101264.88;5073355;28;20487;-60
2022/04/12 00:05:40;;;;;;;6.20;1.40;;;;;;;14.55;33.83;101280.16;5072685;28;20369;-60
2022/04/12 00:08:07;;;;;;;7.25;1.50;;;;;;;14.44;34.45;101268.22;5073058;28;20028;-59
2022/04/12 00:10:33;;;;;;;5.03;1.27;;;;;;;14.27;33.54;101263.41;5073968;28;20095;-59
2022/04/12 00:13:01;;;;;;;2.80;1.00;;;;;;;14.09;33.85;101268.69;5072399;28;20020;-59
2022/04/12 00:15:27;;;;;;;6.25;1.42;;;;;;;14.12;35.00;101267.47;5058614;28;20025;-57
2022/04/12 00:20:39;;;;;;;6.40;1.23;;;;;;;13.80;34.60;101275.53;5054257;28;20032;-57
2022/04/12 00:23:05;;;;;;;6.25;1.08;;;;;;;13.74;36.39;101274.53;5056322;28;20032;-57
2022/04/12 00:25:31;;;;;;;6.35;1.35;;;;;;;13.88;36.53;101277.97;5053682;28;20063;-57
2022/04/12 00:27:59;;;;;;;3.72;1.20;;;;;;;13.83;34.66;101277.81;5057944;28;20173;-55
2022/04/12 00:30:27;;;;;;;8.60;2.13;;;;;;;13.80;35.49;101282.78;5073701;28;20024;-58
2022/04/12 00:32:54;;;;;;;5.30;1.17;;;;;;;13.75;36.17;101296.88;5072190;28;20028;-57
2022/04/12 00:35:22;;;;;;;10.68;1.30;;;;;;;13.77;36.01;101300.19;5073423;28;20028;-57
2022/04/12 00:37:52;;;;;;;6.35;1.38;;;;;;;13.78;35.85;101296.47;5072100;28;20021;-57
2022/04/12 00:40:19;;;;;;;5.45;1.50;;;;;;;13.73;36.50;101304.34;5073627;28;20024;-57
2022/04/12 00:42:47;;;;;;;9.07;1.40;;;;;;;13.71;35.74;101301.03;5067563;28;20023;-59
2022/04/12 00:45:14;;;;;;;9.30;2.03;;;;;;;13.80;35.44;101297.06;5053911;28;20033;-59
2022/04/12 00:47:41;;;;;;;3.28;1.00;;;;;;;13.63;36.25;101312.88;5062607;28;20029;-57
2022/04/12 00:50:09;;;;;;;4.63;1.08;;;;;;;13.51;35.66;101311.91;5057943;28;20075;-58
2022/04/12 00:52:39;;;;;;;4.63;1.38;;;;;;;13.33;35.45;101307.22;5068900;28;20104;-58
2022/04/12 00:55:06;;;;;;;3.17;0.88;;;;;;;13.25;35.69;101309.31;5069913;28;20033;-57
2022/04/12 00:57:33;;;;;;;6.68;1.45;;;;;;;13.18;36.87;101312.00;5073349;28;20510;-57
2022/04/12 01:00:07;;;;;;;4.22;0.90;;;;;;;13.28;36.08;101316.97;5069721;28;20379;-57
2022/04/12 01:02:34;;;;;;;4.80;0.98;;;;;;;13.28;35.26;101316.97;5070231;28;20024;-56
2022/04/12 01:05:04;;;;;;;2.80;1.00;;;;;;;13.40;36.56;101321.47;5072661;28;20450;-58
2022/04/12 01:07:31;;;;;;;4.57;1.27;;;;;;;13.41;35.68;101324.97;5063311;28;20025;-58
2022/04/12 01:09:58;;;;;;;5.15;1.40;;;;;;;13.41;35.76;101331.19;5056902;28;20520;-58
2022/04/12 01:12:28;;;;;;;6.55;1.40;;;;;;;13.29;36.38;101335.56;5072813;28;20115;-59
2022/04/12 01:14:55;;;;;;;5.10;1.52;;;;;;;13.31;36.44;101325.41;5072303;28;20124;-60
2022/04/12 01:17:21;;;;;;;5.68;1.60;;;;;;;13.15;36.24;101341.97;5072417;28;20534;-59
2022/04/12 01:19:47;;;;;;;7.80;1.25;;;;;;;13.04;36.19;101342.63;5051306;28;20028;-60
2022/04/12 01:22:21;;;;;;;10.13;1.35;;;;;;;12.91;37.43;101348.84;5052451;28;20139;-59
2022/04/12 01:24:48;;;;;;;4.63;1.30;;;;;;;12.88;36.71;101344.72;5060691;28;20074;-60
2022/04/12 01:27:14;;;;;;;6.00;1.00;;;;;;;12.78;35.86;101336.28;5070518;28;20365;-59
2022/04/12 01:29:40;;;;;;;4.28;0.82;;;;;;;12.71;37.05;101340.78;5072349;28;20017;-59
2022/04/12 01:32:07;;;;;;;5.00;1.17;;;;;;;12.59;36.94;101343.28;5071762;28;20090;-59
2022/04/12 01:34:35;;;;;;;3.13;1.27;;;;;;;12.59;36.62;101339.78;5053837;28;20368;-60
2022/04/12 01:37:02;;;;;;;7.70;1.40;;;;;;;12.61;35.66;101348.47;5071985;28;20029;-59
2022/04/12 01:39:29;;;;;;;6.35;1.30;;;;;;;12.49;36.98;101361.66;5072487;28;20154;-59
2022/04/12 01:41:56;;;;;;;3.60;1.20;;;;;;;12.33;37.88;101356.72;5065595;28;20419;-60
2022/04/12 01:44:22;;;;;;;4.15;1.23;;;;;;;12.28;38.04;101343.91;5052426;28;20028;-59
2022/04/12 01:46:49;;;;;;;4.25;1.02;;;;;;;12.42;38.21;101356.28;5051899;28;20032;-59
2022/04/12 01:49:16;;;;;;;2.78;1.05;;;;;;;12.44;37.50;101358.81;5051988;28;20039;-59
2022/04/12 01:51:43;;;;;;;5.88;1.05;;;;;;;12.29;38.34;101352.78;5052178;28;20039;-59
2022/04/12 01:54:09;;;;;;;3.40;1.20;;;;;;;12.27;38.54;101361.06;5052207;28;20032;-59
2022/04/12 01:56:36;;;;;;;7.53;1.75;;;;;;;12.24;39.21;101364.13;5051840;28;20029;-59
2022/04/12 01:59:04;;;;;;;2.72;1.02;;;;;;;12.24;39.08;101360.63;5067682;28;20078;-58
2022/04/12 02:01:30;;;;;;;4.95;1.58;;;;;;;12.15;38.80;101357.28;5068238;28;20112;-59
2022/04/12 02:03:57;;;;;;;6.18;1.13;;;;;;;12.12;38.75;101361.22;5072096;28;20485;-58
2022/04/12 02:06:23;;;;;;;7.05;1.30;;;;;;;12.14;39.20;101371.75;5068982;28;20036;-58
2022/04/12 02:08:49;;;;;;;6.57;1.73;;;;;;;12.02;39.06;101376.88;5052023;28;20171;-57
2022/04/12 02:11:16;;;;;;;7.25;1.88;;;;;;;11.82;40.26;101381.34;5058570;28;20131;-57
2022/04/12 02:13:42;;;;;;;6.18;1.77;;;;;;;11.67;40.86;101389.53;5069025;28;20027;-60
2022/04/12 02:16:08;;;;;;;4.78;1.27;;;;;;;11.51;41.93;101379.97;5058710;28;20098;-59
2022/04/12 02:18:34;;;;;;;3.30;1.08;;;;;;;11.61;41.07;101387.66;5071757;28;20038;-59
2022/04/12 02:21:01;;;;;;;7.07;1.38;;;;;;;11.44;41.27;101380.94;5068417;28;20020;-59
2022/04/12 02:23:27;;;;;;;7.40;1.27;;;;;;;11.32;42.17;101384.16;5065894;28;20040;-58
2022/04/12 02:25:53;;;;;;;8.15;1.30;;;;;;;11.24;41.59;101370.94;5071237;28;20028;-59
2022/04/12 02:28:19;;;;;;;7.22;1.63;;;;;;;11.17;42.45;101386.16;5070747;28;20025;-58
2022/04/12 02:30:45;;;;;;;9.85;1.92;;;;;;;11.00;42.96;101393.69;5071465;28;20174;-57
2022/04/12 02:33:12;;;;;;;5.45;1.65;;;;;;;10.87;44.50;101392.72;5066527;28;20504;-57
2022/04/12 02:35:38;;;;;;;7.18;1.50;;;;;;;10.89;44.43;101396.06;5065936;28;20380;-57
2022/04/12 02:38:04;;;;;;;7.20;1.63;;;;;;;10.78;44.71;101411.63;5071409;28;20035;-57
2022/04/12 02:40:30;;;;;;;7.78;1.65;;;;;;;10.81;44.16;101413.09;5067750;28;20025;-58
2022/04/12 02:42:57;;;;;;;9.18;1.98;;;;;;;10.79;44.48;101423.16;5071527;28;20059;-57
2022/04/12 02:45:23;;;;;;;7.88;2.00;;;;;;;10.63;45.05;101429.63;5070671;28;20075;-57
2022/04/12 02:47:50;;;;;;;5.85;1.50;;;;;;;10.46;45.56;101436.25;5071318;28;20056;-57
2022/04/12 02:50:16;;;;;;;5.38;1.52;;;;;;;10.59;45.07;101444.41;5047915;28;20036;-57
2022/04/12 02:52:42;;;;;;;5.57;1.38;;;;;;;10.48;45.31;101451.09;5060917;28;20394;-57
2022/04/12 02:55:08;;;;;;;12.85;1.30;;;;;;;10.50;45.57;101458.94;5071424;28;20025;-57
2022/04/12 02:57:34;;;;;;;6.32;1.88;;;;;;;10.49;46.00;101471.50;5071182;28;20108;-56
2022/04/12 03:00:01;;;;;;;7.63;2.00;;;;;;;10.41;45.87;101478.81;5056633;28;20377;-57
2022/04/12 03:02:27;;;;;;;8.63;2.33;;;;;;;10.24;46.69;101471.00;5054136;28;20365;-57
2022/04/12 03:04:53;;;;;;;6.57;2.40;;;;;;;10.25;46.54;101474.50;5066427;28;20047;-57
2022/04/12 03:07:19;;;;;;;6.97;1.63;;;;;;;10.28;46.83;101479.50;5062175;28;20033;-57
2022/04/12 03:09:46;;;;;;;2.90;1.50;;;;;;;10.06;47.31;101486.59;5062707;28;20029;-57
2022/04/12 03:12:12;;;;;;;7.60;1.60;;;;;;;10.18;46.47;101489.63;5064680;28;20114;-57
2022/04/12 03:14:38;;;;;;;6.80;1.73;;;;;;;9.96;46.56;101488.75;5051386;28;20439;-57
2022/04/12 03:17:05;;;;;;;5.68;1.35;;;;;;;10.12;46.96;101496.56;5063595;28;20472;-57
2022/04/12 03:19:31;;;;;;;4.38;1.27;;;;;;;10.00;46.75;101508.75;5071185;28;20029;-57
2022/04/12 03:21:58;;;;;;;5.70;1.40;;;;;;;10.02;46.79;101512.88;5071238;28;20028;-57
2022/04/12 03:24:24;;;;;;;12.18;1.90;;;;;;;9.93;47.00;101495.28;5071236;28;20032;-57
2022/04/12 03:26:50;;;;;;;8.18;1.50;;;;;;;9.79;47.00;101496.13;5070902;28;20028;-57
2022/04/12 03:29:18;;;;;;;11.15;2.47;;;;;;;9.91;47.39;101515.19;5056529;28;20472;-57
2022/04/12 03:31:44;;;;;;;10.95;2.20;;;;;;;9.83;47.46;101515.28;5065960;28;20032;-58
2022/04/12 03:34:10;;;;;;;7.68;1.60;;;;;;;9.79;47.47;101522.84;5050765;28;20029;-58
2022/04/12 03:36:37;;;;;;;7.30;1.90;;;;;;;9.77;47.80;101525.72;5059598;28;20055;-58
2022/04/12 03:39:04;;;;;;;8.05;1.85;;;;;;;9.78;47.91;101519.34;5070928;28;20033;-57
2022/04/12 03:41:31;;;;;;;6.00;1.50;;;;;;;9.66;47.91;101526.19;5054769;28;20047;-57
2022/04/12 03:43:57;;;;;;;4.55;1.50;;;;;;;9.77;48.18;101522.19;5054769;28;20033;-58
2022/04/12 03:46:23;;;;;;;6.53;1.70;;;;;;;9.76;48.46;101526.72;5054326;28;20199;-58
2022/04/12 03:48:50;;;;;;;6.20;2.08;;;;;;;9.66;48.91;101520.84;5063367;28;20024;-58
2022/04/12 03:51:16;;;;;;;7.22;2.00;;;;;;;9.55;49.41;101548.00;5074603;28;20078;-58
2022/04/12 03:53:42;;;;;;;6.95;1.85;;;;;;;9.67;49.32;101538.53;5074383;28;20028;-57
2022/04/12 03:56:08;;;;;;;6.93;2.08;;;;;;;9.58;49.29;101541.44;5074454;28;20460;-57
2022/04/12 03:58:36;;;;;;;9.65;1.80;;;;;;;9.50;49.02;101537.84;5074133;28;20029;-57
2022/04/12 04:01:03;;;;;;;7.18;1.77;;;;;;;9.55;49.49;101537.31;5063977;28;20021;-57
2022/04/12 04:03:30;;;;;;;9.55;1.77;;;;;;;9.50;49.18;101537.03;5073513;22;20025;-57
2022/04/12 04:05:56;;;;;;;6.00;1.60;;;;;;;9.48;49.71;101549.72;5033026;28;20037;-57
2022/04/12 04:08:23;;;;;;;6.53;1.48;;;;;;;9.31;49.90;101551.72;5033136;28;20033;-58
2022/04/12 04:10:49;;;;;;;9.77;1.92;;;;;;;9.40;50.15;101557.84;5034920;28;20087;-57
2022/04/12 04:13:17;;;;;;;7.70;1.67;;;;;;;9.44;50.30;101554.63;5052912;28;20025;-57
2022/04/12 04:15:45;;;;;;;6.60;1.50;;;;;;;9.42;49.89;101558.47;5042763;28;20024;-58
2022/04/12 04:18:13;;;;;;;7.85;1.67;;;;;;;9.29;50.44;101559.09;5054001;28;20025;-57
2022/04/12 04:20:40;;;;;;;13.93;1.75;;;;;;;9.22;50.87;101574.19;5054235;28;20491;-58
2022/04/12 04:23:07;;;;;;;8.88;1.55;;;;;;;9.19;50.51;101580.69;5036968;28;20469;-57
2022/04/12 04:25:33;;;;;;;5.72;1.27;;;;;;;9.24;50.85;101580.16;5033725;28;20022;-57
2022/04/12 04:28:00;;;;;;;13.10;2.58;;;;;;;9.24;50.50;101577.50;5033996;28;20037;-57
2022/04/12 04:30:26;;;;;;;7.50;1.77;;;;;;;9.22;50.75;101584.88;5033362;28;20543;-57
2022/04/12 04:32:52;;;;;;;11.95;1.85;;;;;;;9.23;50.58;101606.06;5020501;28;20022;-58
2022/04/12 04:35:19;;;;;;;7.82;2.05;;;;;;;9.14;50.91;101604.44;5033383;28;20079;-57
2022/04/12 04:37:47;;;;;;;4.93;1.30;;;;;;;9.11;51.50;101603.97;5032639;28;20191;-57
2022/04/12 04:40:19;;;;;;;4.97;1.90;;;;;;;8.98;50.86;101604.53;5032909;28;20029;-57
2022/04/12 04:42:46;;;;;;;7.47;1.17;;;;;;;8.85;51.49;101613.13;5048034;28;20580;-57
2022/04/12 04:45:13;;;;;;;4.53;1.20;;;;;;;8.84;51.37;101619.50;5032169;28;20191;-57
2022/04/12 04:47:53;;;;;;;3.38;1.20;;;;;;;8.90;51.09;101599.28;5031305;28;20030;-57
2022/04/12 04:50:21;;;;;;;3.45;0.85;;;;;;;8.83;50.99;101601.81;5032567;28;20049;-57
2022/04/12 04:52:48;;;;;;;4.30;0.80;;;;;;;8.78;50.35;101582.81;5032135;28;20056;-57
2022/04/12 04:55:15;;;;;;;5.93;1.00;;;;;;;8.77;49.88;101601.66;5033100;28;20389;-58
2022/04/12 04:57:43;;;;;;;4.13;0.93;;;;;;;8.64;50.50;101597.72;5032333;28;20315;-57
2022/04/12 05:00:16;;;;;;;5.80;1.00;;;;;;;8.68;50.72;101604.38;5032713;28;20030;-57
2022/04/12 05:02:44;;;;;;;3.63;1.05;;;;;;;8.64;50.87;101620.91;5031563;28;20029;-57
2022/04/12 05:05:12;;;;;;;4.78;1.35;;;;;;;8.61;50.39;101627.44;5031975;28;20056;-57
2022/04/12 05:07:39;;;;;;;2.53;0.80;;;;;;;8.56;50.41;101632.47;5032642;28;20124;-57
2022/04/12 05:10:06;;;;;;;3.33;0.70;;;;;;;8.54;50.37;101645.13;5032260;28;20367;-57
2022/04/12 05:12:33;;;;;;;4.80;0.75;;;;;;;8.46;50.57;101648.69;5033087;28;20544;-57
2022/04/12 05:14:59;;;;;;;2.90;0.77;;;;;;;8.45;50.29;101647.03;5032155;28;20029;-58
2022/04/12 05:17:27;;;;;;;4.28;0.60;;;;;;;8.43;49.71;101640.19;5065005;28;20431;-57
2022/04/12 05:19:56;;;;;;;3.67;0.47;;;;;;;8.32;49.26;101638.69;5032420;28;20075;-57
2022/04/12 05:22:23;;;;;;;3.45;0.70;;;;;;;8.28;49.64;101648.06;5033996;28;20025;-56
2022/04/12 05:24:50;;;;;;;3.22;0.80;;;;;;;8.24;50.74;101643.22;5032514;28;20080;-57
2022/04/12 05:27:17;;;;;;;3.70;0.70;;;;;;;8.29;49.95;101640.88;5032983;28;20151;-57
2022/04/12 05:29:43;;;;;;;2.05;0.60;;;;;;;8.20;50.57;101637.38;5031919;28;20026;-57
2022/04/12 05:32:13;;;;;;;3.55;0.68;;;;;;;8.24;49.82;101649.38;5032874;28;20396;-57
2022/04/12 05:34:43;;;;;;;2.33;0.70;;;;;;;8.16;49.95;101644.06;5031757;28;20099;-57
2022/04/12 05:37:13;;;;;;;4.32;0.85;;;;;;;8.19;50.30;101643.72;5018814;28;20029;-57
2022/04/12 05:39:39;;;;;;;2.28;0.50;;;;;;;8.25;50.05;101651.03;5025791;28;20040;-57
2022/04/12 05:42:05;;;;;;;4.20;0.65;;;;;;;8.20;50.46;101659.56;5031874;28;20029;-57
2022/04/12 05:44:34;;;;;;;2.88;0.60;;;;;;;8.19;50.29;101657.91;5031510;28;20022;-57
2022/04/12 05:47:02;;;;;;;2.05;0.68;;;;;;;8.20;50.19;101642.72;5031402;28;20065;-57
2022/04/12 05:49:29;;;;;;;2.40;0.47;;;;;;;8.17;50.03;101659.91;5031318;28;20017;-57
2022/04/12 05:51:56;;;;;;;1.08;0.50;;;;;;;8.18;49.58;101666.06;5032577;28;20037;-57
2022/04/12 05:54:23;;;;;;;2.78;0.52;;;;;;;8.08;50.18;101663.59;5031510;28;20108;-57
2022/04/12 05:56:50;;;;;;;2.58;0.40;;;;;;;8.05;50.31;101657.75;5031790;28;20040;-56
2022/04/12 05:59:17;;;;;;;2.38;0.40;;;;;;;8.06;48.94;101673.59;5031357;28;20030;-56
2022/04/12 06:01:43;;;;;;;1.88;0.80;;;;;;;8.06;49.12;101662.09;5032139;28;20025;-57
2022/04/12 06:04:10;;;;;;;1.20;0.50;;;;;;;8.12;49.84;101677.41;5037121;22;20037;-56
2022/04/12 06:06:38;;;;;;;2.92;0.70;;;;;;;8.15;49.74;101690.41;5011163;28;20124;-56
2022/04/12 06:09:04;;;;;;;5.65;1.33;;;;;;;8.14;48.82;101688.75;5015901;28;20544;-57
2022/04/12 06:11:31;;;;;;;1.75;0.70;;;;;;;8.16;48.53;101708.91;5031653;28;20473;-57
2022/04/12 06:13:58;;;;;;;3.00;0.50;;;;;;;8.09;49.53;101697.25;5028493;28;20413;-56
2022/04/12 06:16:24;;;;;;;3.03;0.88;;;;;;;8.15;49.81;101701.06;5011609;28;20508;-56
2022/04/12 06:18:51;;;;;;;3.33;0.75;;;;;;;8.02;50.17;101706.91;5031981;28;20033;-57
2022/04/12 06:21:17;;;;;;;3.65;1.13;;;;;;;8.04;49.50;101706.75;5030849;28;20148;-57
2022/04/12 06:23:44;;;;;;;2.33;0.70;;;;;;;7.96;49.51;101707.59;5029147;28;20033;-57
2022/04/12 06:26:10;;;;;;;5.90;0.82;;;;;;;7.97;49.67;101711.09;5031469;28;20136;-56
2022/04/12 06:28:36;;;;;;;2.25;0.50;;;;;;;7.97;49.52;101709.25;5029625;28;20397;-57
2022/04/12 06:31:03;;;;;;;8.98;1.00;;;;;;;7.95;50.72;101719.25;5031708;28;20155;-57
2022/04/12 06:33:29;;;;;;;2.88;0.60;;;;;;;7.92;50.92;101731.06;5015134;28;20529;-57
2022/04/12 06:35:56;;;;;;;4.25;0.70;;;;;;;7.91;50.93;101744.59;5008205;28;20034;-57
2022/04/12 06:38:22;;;;;;;2.95;0.88;;;;;;;7.88;50.57;101734.25;5021605;28;20044;-56
2022/04/12 06:40:49;;;;;;;2.50;0.95;;;;;;;7.81;51.22;101733.25;5031381;28;20041;-57
2022/04/12 06:43:16;;;;;;;3.83;0.63;;;;;;;7.81;51.06;101743.91;5027578;28;20030;-57
2022/04/12 06:45:42;;;;;;;4.82;1.40;;;;;;;7.87;49.85;101748.56;5029060;28;20033;-56
2022/04/12 06:48:09;;;;;;;9.45;1.85;;;;;;;7.91;50.04;101755.25;5031830;28;20021;-56
2022/04/12 06:50:36;;;;;;;3.17;0.65;;;;;;;7.79;51.10;101757.41;5024592;28;20022;-57
2022/04/12 06:53:06;;;;;;;5.07;1.13;;;;;;;7.76;51.55;101756.88;5011904;28;20501;-57
2022/04/12 06:55:32;;;;;;;5.50;1.27;;;;;;;7.75;51.76;101760.56;5010985;28;20173;-57
2022/04/12 06:57:58;;;;;;;4.03;1.75;;;;;;;7.81;51.53;101767.88;5011118;28;20048;-57
2022/04/12 07:00:25;;;;;;;3.38;1.58;;;;;;;7.72;52.03;101776.88;5007699;28;20417;-57
2022/04/12 07:02:51;;;;;;;3.90;0.88;;;;;;;7.90;51.16;101780.25;5010837;28;20045;-57
2022/04/12 07:05:18;;;;;;;2.38;0.95;;;;;;;7.82;51.39;101782.88;5005314;28;20050;-57
2022/04/12 07:07:45;;;;;;;6.82;1.15;;;;;;;7.81;51.51;101786.56;5025690;28;20469;-56
2022/04/12 07:10:14;;;;;;;5.32;1.02;;;;;;;7.85;51.20;101775.41;5027656;28;20465;-57
2022/04/12 07:12:40;;;;;;;10.90;1.30;;;;;;;7.72;51.96;101787.53;5011850;28;20022;-56
2022/04/12 07:15:08;;;;;;;10.18;1.50;;;;;;;7.80;51.51;101788.38;5013592;28;20433;-57
2022/04/12 07:17:34;;;;;;;4.72;1.02;;;;;;;7.86;50.84;101781.56;5015519;28;20088;-57
2022/04/12 07:20:01;;;;;;;8.20;1.83;;;;;;;7.81;51.76;101794.53;5015664;28;20107;-57
2022/04/12 07:22:27;;;;;;;3.17;1.10;;;;;;;7.78;51.85;101794.88;5015455;28;20033;-57
2022/04/12 07:24:53;;;;;;;4.10;1.27;;;;;;;7.94;51.61;101794.91;5013762;28;20049;-57
2022/04/12 07:27:20;;;;;;;3.55;0.95;;;;;;;7.89;50.92;101798.06;5019885;28;20040;-57
2022/04/12 07:29:46;;;;;;;6.57;1.02;;;;;;;7.92;50.77;101812.88;5021291;28;20109;-57
2022/04/12 07:32:12;;;;;;;3.78;0.82;;;;;;;7.76;50.51;101789.69;5015408;28;20082;-57
2022/04/12 07:34:38;;;;;;;6.45;0.82;;;;;;;7.90;50.47;101812.22;5015336;28;20026;-57
2022/04/12 07:37:05;;;;;;;6.07;1.55;;;;;;;7.81;51.03;101813.19;5001692;28;20447;-57
2022/04/12 07:39:31;;;;;;;3.85;0.90;;;;;;;7.85;51.15;101814.56;5014491;28;20026;-57
2022/04/12 07:41:57;;;;;;;3.17;1.13;;;;;;;7.82;50.83;101817.53;5015190;28;20053;-57
2022/04/12 07:44:23;;;;;;;2.78;0.80;;;;;;;7.95;50.41;101825.91;5015119;28;20135;-57
2022/04/12 07:46:50;;;;;;;2.53;1.45;;;;;;;7.92;51.02;101828.88;5012038;28;20691;-57
2022/04/12 07:49:16;;;;;;;7.57;1.48;;;;;;;7.85;50.88;101842.03;4995185;28;20469;-58
2022/04/12 07:51:43;;;;;;;6.80;1.92;;;;;;;7.88;51.05;101848.84;4995126;28;20794;-57
2022/04/12 07:54:09;;;;;;;5.82;1.48;;;;;;;7.87;51.37;101855.19;5019331;28;20026;-57
2022/04/12 07:56:36;;;;;;;6.20;1.60;;;;;;;7.81;51.76;101845.19;5014184;28;20034;-57
2022/04/12 07:59:03;;;;;;;12.50;1.50;;;;;;;7.90;51.95;101863.72;5014966;28;20029;-57
2022/04/12 08:01:29;;;;;;;5.25;1.35;;;;;;;7.84;51.95;101860.88;5014686;28;20394;-57
2022/04/12 08:03:56;;;;;;;6.55;1.50;;;;;;;7.85;52.13;101867.84;5014787;28;20021;-56
2022/04/12 08:06:24;;;;;;;8.70;2.42;;;;;;;7.85;52.25;101857.19;5013728;28;20054;-56
2022/04/12 08:08:50;;;;;;;9.27;1.73;;;;;;;7.89;51.14;101863.88;5014738;28;20030;-56
2022/04/12 08:11:16;;;;;;;4.45;1.40;;;;;;;7.80;51.13;101857.69;5014269;28;20026;-56
2022/04/12 08:13:44;;;;;;;7.13;1.45;;;;;;;7.88;51.39;101864.84;4995192;28;20037;-57
2022/04/12 08:16:10;;;;;;;9.60;1.67;;;;;;;7.90;50.70;101870.88;4994438;28;20030;-56
2022/04/12 08:18:37;;;;;;;8.10;1.33;;;;;;;7.71;50.93;101858.66;4995194;28;20065;-56
2022/04/12 08:21:03;;;;;;;8.30;1.90;;;;;;;7.79;50.99;101855.19;5022760;28;20362;-56
2022/04/12 08:23:29;;;;;;;7.10;1.75;;;;;;;7.75;51.37;101862.66;5034139;28;20478;-57
2022/04/12 08:25:55;;;;;;;9.93;1.83;;;;;;;7.68;51.20;101862.47;5032919;28;20033;-56
2022/04/12 08:28:21;;;;;;;5.45;1.50;;;;;;;7.66;51.80;101863.63;5016582;28;20029;-56
2022/04/12 08:30:48;;;;;;;5.38;2.00;;;;;;;7.71;51.66;101868.47;5014455;28;20041;-56
2022/04/12 08:33:14;;;;;;;6.68;1.80;;;;;;;7.62;52.21;101865.78;5014618;28;20030;-57
2022/04/12 08:35:40;;;;;;;8.43;1.85;;;;;;;7.66;51.39;101867.16;5012553;28;20048;-57
2022/04/12 08:38:06;;;;;;;7.13;1.83;;;;;;;7.63;51.54;101858.63;4994583;28;20383;-56
2022/04/12 08:40:33;;;;;;;10.30;2.20;;;;;;;7.67;51.73;101874.16;4994871;28;20030;-57
2022/04/12 08:42:59;;;;;;;10.38;2.42;;;;;;;7.63;52.09;101872.78;5008734;28;20485;-56
2022/04/12 08:45:26;;;;;;;8.23;1.60;;;;;;;7.57;52.05;101870.78;4996204;28;20129;-57
2022/04/12 08:47:53;;;;;;;8.23;1.48;;;;;;;7.66;51.33;101872.47;5013746;28;20040;-57
2022/04/12 08:50:21;;;;;;;8.98;2.03;;;;;;;7.57;51.89;101878.75;5013717;28;20045;-57
2022/04/12 08:52:47;;;;;;;6.65;1.63;;;;;;;7.56;52.28;101877.09;5014654;28;20363;-57
2022/04/12 08:55:14;;;;;;;23.08;2.60;;;;;;;7.68;51.58;101880.31;5033153;28;20385;-57
2022/04/12 08:57:40;;;;;;;7.35;1.90;;;;;;;7.64;51.65;101884.28;5033500;28;20548;-57
2022/04/12 09:00:07;;;;;;;9.43;1.60;;;;;;;7.60;51.77;101890.91;5033507;28;20026;-57
2022/04/12 09:02:34;;;;;;;8.70;1.98;;;;;;;7.66;51.75;101891.13;5029959;28;20026;-57
2022/04/12 09:05:00;;;;;;;11.20;2.50;;;;;;;7.63;51.67;101896.78;5012129;28;20962;-57
2022/04/12 09:07:28;;;;;;;8.40;2.10;;;;;;;7.52;51.36;101899.72;5013575;28;20362;-57
2022/04/12 09:10:06;;;;;;;6.72;1.60;;;;;;;7.64;51.64;101905.59;5012729;28;20072;-56
2022/04/12 09:12:34;;;;;;;9.07;1.95;;;;;;;7.66;51.94;101898.25;5011866;28;20037;-57
2022/04/12 09:15:01;;;;;;;7.50;1.60;;;;;;;7.64;51.90;101895.78;5013072;28;20152;-56
2022/04/12 09:17:34;;;;;;;7.38;2.05;;;;;;;7.59;51.66;101907.91;5012611;28;20042;-56
2022/04/12 09:20:01;;;;;;;8.00;1.90;;;;;;;7.58;51.32;101903.56;5013281;28;20030;-57
2022/04/12 09:22:28;;;;;;;11.73;1.95;;;;;;;7.55;51.17;101904.75;5012282;28;20022;-57
2022/04/12 09:24:57;;;;;;;8.93;2.00;;;;;;;7.58;51.32;101908.91;5012999;28;20026;-56
2022/04/12 09:27:28;;;;;;;12.27;2.38;;;;;;;7.60;51.95;101909.56;5009653;28;20179;-56
2022/04/12 09:29:57;;;;;;;6.75;1.70;;;;;;;7.53;52.11;101901.38;5012286;28;20029;-56
2022/04/12 09:32:28;;;;;;;9.73;1.95;;;;;;;7.48;51.97;101898.38;5013097;28;20038;-57
2022/04/12 09:34:55;;;;;;;6.65;2.17;;;;;;;7.54;51.99;101905.72;5011648;28;20059;-56
2022/04/12 09:37:28;;;;;;;8.10;1.77;;;;;;;7.60;52.22;101907.72;5012873;28;20427;-56
2022/04/12 09:40:03;;;;;;;7.20;2.03;;;;;;;7.66;51.58;101899.13;5012079;28;20033;-56
2022/04/12 09:42:50;;;;;;;8.63;2.30;;;;;;;7.69;51.17;101905.94;5012916;28;20034;-57
2022/04/12 09:45:30;;;;;;;11.02;2.17;;;;;;;7.53;51.17;101905.88;5010825;28;20037;-57
2022/04/12 09:47:58;;;;;;;8.77;2.50;;;;;;;7.54;51.30;101895.06;5012810;28;20052;-57
2022/04/12 09:50:27;;;;;;;13.23;2.08;;;;;;;7.54;51.79;101902.22;5012101;28;20021;-57
2022/04/12 09:52:54;;;;;;;8.05;2.25;;;;;;;7.54;51.65;101903.06;5011286;28;20061;-57
2022/04/12 09:55:40;;;;;;;15.63;2.42;;;;;;;7.48;51.74;101895.69;5011504;28;20038;-56
2022/04/12 09:58:12;;;;;;;9.57;1.92;;;;;;;7.44;52.01;101894.38;5011841;28;20111;-57
2022/04/12 10:00:39;;;;;;;10.13;2.30;;;;;;;7.49;51.08;101884.03;5012695;28;20088;-57
2022/04/12 10:03:08;;;;;;;9.32;2.30;;;;;;;7.45;51.59;101898.69;5011198;28;20529;-57
2022/04/12 10:05:34;;;;;;;14.88;2.60;;;;;;;7.45;51.79;101897.88;5012037;28;20081;-57
2022/04/12 10:08:04;;;;;;;11.38;2.22;;;;;;;7.42;52.15;101901.66;5011635;28;20505;-56
2022/04/12 10:10:30;;;;;;;14.52;2.78;;;;;;;7.33;51.46;101906.13;5012696;28;20087;-57
2022/04/12 10:12:59;;;;;;;8.10;2.17;;;;;;;7.32;51.57;101906.28;5011271;28;20026;-57
2022/04/12 10:15:27;;;;;;;14.10;2.13;;;;;;;7.36;51.67;101916.47;5011911;28;20053;-57
2022/04/12 10:17:54;;;;;;;9.90;2.50;;;;;;;7.35;52.04;101908.63;5011304;28;20034;-56
2022/04/12 10:20:21;;;;;;;12.82;2.45;;;;;;;7.31;51.78;101907.28;5012428;28;20026;-56
2022/04/12 10:22:49;;;;;;;10.98;2.70;;;;;;;7.27;51.79;101898.75;5012480;28;20452;-56
2022/04/12 10:25:19;;;;;;;10.02;2.28;;;;;;;7.24;51.99;101899.09;5011461;28;20481;-57
2022/04/12 10:27:47;;;;;;;11.43;2.53;;;;;;;7.24;52.05;101909.75;5007439;28;20428;-56
2022/04/12 10:30:18;;;;;;;11.65;2.20;;;;;;;7.29;51.72;101910.09;5010536;28;20486;-57
2022/04/12 10:33:03;;;;;;;12.25;2.83;;;;;;;7.35;52.08;101913.97;5012060;28;20029;-57
2022/04/12 10:35:31;;;;;;;8.98;2.45;;;;;;;7.32;52.17;101915.09;5011503;28;20108;-57
2022/04/12 10:37:57;;;;;;;10.65;2.05;;;;;;;7.20;52.53;101912.88;5011278;28;20034;-57
2022/04/12 10:40:28;;;;;;;11.65;2.50;;;;;;;7.25;52.39;101913.22;5011848;28;20050;-56
2022/04/12 10:43:01;;;;;;;16.95;3.30;;;;;;;7.20;52.63;101919.03;5011338;28;20037;-56
2022/04/12 10:45:32;;;;;;;14.90;2.65;;;;;;;7.28;52.79;101910.28;5011687;28;20470;-57
2022/04/12 10:48:02;;;;;;;7.43;2.22;;;;;;;7.32;52.64;101915.09;5011355;28;20052;-56
2022/04/12 10:50:40;;;;;;;21.73;3.08;;;;;;;7.29;52.13;101914.59;5011364;28;20172;-56
2022/04/12 10:53:07;;;;;;;10.80;2.90;;;;;;;7.33;52.21;101918.63;5010875;28;20034;-57
2022/04/12 10:55:40;;;;;;;11.93;2.58;;;;;;;7.37;52.53;101923.44;5010742;28;20038;-56
2022/04/12 10:58:28;;;;;;;9.43;3.10;;;;;;;7.25;52.96;101927.38;5011995;28;20453;-56
2022/04/12 11:00:55;;;;;;;6.60;2.15;;;;;;;7.33;52.70;101937.25;5010709;28;20022;-57
2022/04/12 11:03:41;;;;;;;15.02;2.55;;;;;;;7.21;53.16;101941.16;5011863;28;20052;-56
2022/04/12 11:06:27;;;;;;;9.70;2.45;;;;;;;7.25;52.46;101934.53;5000255;28;20050;-57
2022/04/12 11:09:07;;;;;;;16.55;2.20;;;;;;;7.08;53.29;101941.59;5011634;28;20030;-56
2022/04/12 11:11:41;;;;;;;10.40;2.38;;;;;;;7.22;53.34;101942.81;5010939;28;20034;-56
2022/04/12 11:14:36;;;;;;;13.57;2.53;;;;;;;7.16;53.48;101952.28;5011713;28;20041;-57
2022/04/12 11:17:12;;;;;;;15.45;2.63;;;;;;;7.04;53.79;101942.88;5009773;28;20052;-57
2022/04/12 11:19:41;;;;;;;10.38;2.22;;;;;;;7.27;53.39;101949.34;5011517;28;20034;-56
2022/04/12 11:22:11;;;;;;;12.30;2.53;;;;;;;7.28;53.46;101945.72;5010842;28;20438;-57
2022/04/12 11:24:38;;;;;;;7.25;2.50;;;;;;;7.20;53.59;101937.66;5010480;28;20029;-56
2022/04/12 11:27:07;;;;;;;8.02;2.05;;;;;;;7.10;54.16;101943.09;5010662;28;20402;-57
2022/04/12 11:29:33;;;;;;;9.25;2.40;;;;;;;7.10;53.44;101939.59;5003672;28;20366;-56
2022/04/12 11:32:00;;;;;;;9.38;2.88;;;;;;;7.21;53.03;101944.66;5011399;28;20018;-57
2022/04/12 11:34:28;;;;;;;15.38;3.28;;;;;;;7.15;53.29;101946.13;5011320;28;20088;-56